createdAt,value
2018-08-13T00:01:38.393Z,100094.40
2018-08-13T00:04:06.876Z,100090.50
2018-08-13T00:06:35.684Z,100085.40
2018-08-13T00:09:05.018Z,100081.63
2018-08-13T00:11:33.708Z,100082.94
2018-08-13T00:14:02.357Z,100093.56
2018-08-13T00:16:31.003Z,100091.45
2018-08-13T00:18:59.693Z,100086.55
2018-08-13T00:21:28.882Z,100092.70
2018-08-13T00:23:57.456Z,100089.67
2018-08-13T00:26:25.966Z,100093.08
2018-08-13T00:28:55.015Z,100094.28
2018-08-13T00:31:23.707Z,100083.62
2018-08-13T00:33:52.201Z,100093.91
2018-08-13T00:36:20.967Z,100086.14
2018-08-13T00:38:49.482Z,100075.45
2018-08-13T00:41:18.022Z,100069.31
2018-08-13T00:43:47.485Z,100072.30
2018-08-13T00:46:15.981Z,100071.79
2018-08-13T00:48:44.435Z,100069.69
2018-08-13T00:51:13.229Z,100076.75
2018-08-13T00:53:41.693Z,100077.58
2018-08-13T00:56:10.232Z,100065.59
2018-08-13T00:58:38.752Z,100065.00
2018-08-13T01:01:07.300Z,100058.47
2018-08-13T01:03:35.980Z,100056.37
2018-08-13T01:06:04.849Z,100055.77
2018-08-13T01:08:33.384Z,100051.23
2018-08-13T01:11:01.921Z,100050.59
2018-08-13T01:13:30.517Z,100038.83
2018-08-13T01:15:59.650Z,100049.11
2018-08-13T01:18:28.194Z,100046.08
2018-08-13T01:20:56.686Z,100036.49
2018-08-13T01:23:25.184Z,100027.03
2018-08-13T01:25:55.034Z,100029.55
2018-08-13T01:28:24.463Z,100029.64
2018-08-13T01:30:53.025Z,100030.70
2018-08-13T01:33:21.560Z,100020.65
2018-08-13T01:35:50.068Z,100015.83
2018-08-13T01:38:18.631Z,100014.09
2018-08-13T01:40:47.112Z,100008.16
2018-08-13T01:43:15.671Z,100006.66
2018-08-13T01:45:44.300Z,99996.23
2018-08-13T01:48:12.836Z,100000.31
2018-08-13T01:50:41.352Z,100001.28
2018-08-13T01:53:10.833Z,100002.02
2018-08-13T01:55:39.588Z,99993.11
2018-08-13T01:58:08.251Z,99993.47
2018-08-13T02:00:36.789Z,99985.48
2018-08-13T02:03:06.365Z,99986.82
2018-08-13T02:05:34.869Z,99990.45
2018-08-13T02:08:03.423Z,99986.05
2018-08-13T02:10:32.097Z,99985.69
2018-08-13T02:13:00.604Z,99978.42
2018-08-13T02:15:29.332Z,99976.31
2018-08-13T02:17:57.912Z,99980.31
2018-08-13T02:20:26.384Z,99976.08
2018-08-13T02:22:55.062Z,99972.19
2018-08-13T02:25:23.538Z,99974.84
2018-08-13T02:27:52.008Z,99968.11
2018-08-13T02:30:20.663Z,99963.48
2018-08-13T02:32:49.290Z,99961.41
2018-08-13T02:35:18.810Z,99958.02
2018-08-13T02:37:48.072Z,99955.58
2018-08-13T02:40:16.878Z,99951.31
2018-08-13T02:42:45.566Z,99955.52
2018-08-13T02:45:14.282Z,99965.52
2018-08-13T02:47:42.813Z,99973.59
2018-08-13T02:50:12.922Z,99983.12
2018-08-13T02:52:42.044Z,99996.88
2018-08-13T02:55:11.647Z,100030.62
2018-08-13T02:57:40.177Z,99986.95
2018-08-13T03:00:10.504Z,100005.67
2018-08-13T03:02:39.836Z,100024.78
2018-08-13T03:05:11.051Z,100016.30
2018-08-13T03:07:39.925Z,100006.69
2018-08-13T03:10:11.436Z,100012.52
2018-08-13T03:12:39.992Z,100014.35
2018-08-13T03:15:11.181Z,99991.43
2018-08-13T03:17:39.845Z,99989.88
2018-08-13T03:20:09.014Z,99989.06
2018-08-13T03:22:38.216Z,99992.87
2018-08-13T03:25:08.877Z,99998.93
2018-08-13T03:27:37.798Z,99994.25
2018-08-13T03:30:09.935Z,99993.20
2018-08-13T03:32:38.796Z,99992.23
2018-08-13T03:35:07.772Z,99999.16
2018-08-13T03:37:36.535Z,100003.16
2018-08-13T03:40:07.791Z,100012.84
2018-08-13T03:42:36.987Z,100010.03
2018-08-13T03:45:07.297Z,100013.42
2018-08-13T03:47:35.989Z,100025.90
2018-08-13T03:50:05.651Z,100029.02
2018-08-13T03:52:34.481Z,100035.48
2018-08-13T03:55:03.012Z,100059.01
2018-08-13T03:57:31.534Z,100063.13
2018-08-13T04:00:00.127Z,100060.98
2018-08-13T04:02:29.025Z,100067.11
2018-08-13T04:04:57.721Z,100058.70
2018-08-13T04:07:26.407Z,100047.25
2018-08-13T04:09:55.061Z,100061.81
2018-08-13T04:12:23.940Z,100063.16
2018-08-13T04:14:52.502Z,100067.53
2018-08-13T04:17:21.760Z,100066.05
2018-08-13T04:19:51.122Z,100076.97
2018-08-13T04:22:19.977Z,100082.34
2018-08-13T04:24:49.261Z,100071.77
2018-08-13T04:27:17.991Z,100058.98
2018-08-13T04:29:46.839Z,100057.41
2018-08-13T04:32:15.746Z,100058.91
2018-08-13T04:34:44.739Z,100056.09
2018-08-13T04:37:13.770Z,100071.86
2018-08-13T04:39:42.804Z,100067.79
2018-08-13T04:42:12.043Z,100071.48
2018-08-13T04:44:41.438Z,100072.73
2018-08-13T04:47:10.532Z,100064.39
2018-08-13T04:49:39.379Z,100056.91
2018-08-13T04:52:08.515Z,100048.28
2018-08-13T04:54:38.081Z,100045.34
2018-08-13T04:57:07.522Z,100045.17
2018-08-13T04:59:36.636Z,100041.19
2018-08-13T05:02:05.293Z,100037.09
2018-08-13T05:04:34.345Z,100017.21
2018-08-13T05:07:03.617Z,100011.90
2018-08-13T05:09:32.415Z,100037.69
2018-08-13T05:12:01.192Z,100043.48
2018-08-13T05:14:29.822Z,100042.20
2018-08-13T05:16:58.720Z,100034.53
2018-08-13T05:19:33.189Z,100005.92
2018-08-13T05:22:01.965Z,100013.13
2018-08-13T05:24:30.548Z,100012.39
2018-08-13T05:26:59.278Z,99990.58
2018-08-13T05:29:27.977Z,99983.57
2018-08-13T05:31:56.675Z,99995.52
2018-08-13T05:34:25.821Z,99996.95
2018-08-13T05:36:54.616Z,99998.08
2018-08-13T05:39:23.853Z,100012.19
2018-08-13T05:41:52.436Z,99996.64
2018-08-13T05:44:21.201Z,99960.72
2018-08-13T05:46:50.664Z,99966.78
2018-08-13T05:49:19.472Z,99973.41
2018-08-13T05:51:48.414Z,99969.55
2018-08-13T05:54:17.482Z,99952.84
2018-08-13T05:56:46.096Z,99944.51
2018-08-13T05:59:14.854Z,99941.11
2018-08-13T06:01:43.618Z,99921.84
2018-08-13T06:04:12.346Z,99917.78
2018-08-13T06:06:41.293Z,99934.19
2018-08-13T06:09:12.906Z,99954.67
2018-08-13T06:11:41.819Z,99965.66
2018-08-13T06:14:10.753Z,99968.59
2018-08-13T06:16:39.866Z,99967.56
2018-08-13T06:19:08.687Z,99966.03
2018-08-13T06:21:37.597Z,99962.13
2018-08-13T06:24:06.376Z,99961.09
2018-08-13T06:26:35.001Z,99965.25
2018-08-13T06:29:04.202Z,99979.33
2018-08-13T06:31:33.124Z,99976.56
2018-08-13T06:34:02.257Z,99981.20
2018-08-13T06:36:31.000Z,99972.66
2018-08-13T06:38:59.666Z,99977.39
2018-08-13T06:41:29.187Z,99980.17
2018-08-13T06:43:58.567Z,99976.27
2018-08-13T06:46:27.215Z,99984.52
2018-08-13T06:48:55.893Z,99992.66
2018-08-13T06:51:24.645Z,100001.20
2018-08-13T06:53:53.477Z,99992.28
2018-08-13T06:56:22.147Z,99994.27
2018-08-13T06:58:50.944Z,99994.85
2018-08-13T07:01:19.806Z,99995.48
2018-08-13T07:03:48.631Z,100005.34
2018-08-13T07:06:17.715Z,99996.43
2018-08-13T07:08:46.313Z,99993.03
2018-08-13T07:11:15.577Z,100002.86
2018-08-13T07:13:44.331Z,100008.83
2018-08-13T07:16:13.081Z,100007.59
2018-08-13T07:18:41.752Z,100010.63
2018-08-13T07:21:10.464Z,100021.44
2018-08-13T07:23:39.154Z,100015.93
2018-08-13T07:26:08.133Z,100019.62
2018-08-13T07:28:37.295Z,100027.37
2018-08-13T07:31:05.917Z,100024.52
2018-08-13T07:33:34.717Z,100030.41
2018-08-13T07:36:04.228Z,100029.95
2018-08-13T07:38:33.024Z,100046.63
2018-08-13T07:41:01.727Z,100046.55
2018-08-13T07:43:30.337Z,100042.94
2018-08-13T07:45:59.599Z,100043.52
2018-08-13T07:48:28.631Z,100047.58
2018-08-13T07:50:57.957Z,100044.44
2018-08-13T07:53:26.582Z,100052.98
2018-08-13T07:55:55.389Z,100048.45
2018-08-13T07:58:24.114Z,100049.20
2018-08-13T08:00:52.853Z,100060.48
2018-08-13T08:03:21.717Z,100053.10
2018-08-13T08:05:50.327Z,100053.56
2018-08-13T08:08:19.484Z,100049.12
2018-08-13T08:10:48.097Z,100059.73
2018-08-13T08:13:17.055Z,100056.63
2018-08-13T08:15:45.955Z,100066.95
2018-08-13T08:18:14.600Z,100065.14
2018-08-13T08:20:43.415Z,100059.45
2018-08-13T08:23:12.136Z,100070.66
2018-08-13T08:25:40.834Z,100070.56
2018-08-13T08:28:09.912Z,100068.66
2018-08-13T08:30:38.853Z,100060.86
2018-08-13T08:33:07.680Z,100061.98
2018-08-13T08:35:37.154Z,100056.91
2018-08-13T08:38:06.490Z,100052.04
2018-08-13T08:40:35.338Z,100059.05
2018-08-13T08:43:04.586Z,100056.30
2018-08-13T08:45:34.052Z,100052.31
2018-08-13T08:48:02.791Z,100055.41
2018-08-13T08:50:31.400Z,100055.58
2018-08-13T08:53:00.345Z,100057.84
2018-08-13T08:55:29.469Z,100053.24
2018-08-13T08:57:58.141Z,100053.01
2018-08-13T09:00:27.652Z,100058.64
2018-08-13T09:02:56.488Z,100057.19
2018-08-13T09:05:25.630Z,100052.85
2018-08-13T09:07:54.514Z,100055.70
2018-08-13T09:10:23.404Z,100054.37
2018-08-13T09:12:52.453Z,100056.81
2018-08-13T09:15:21.367Z,100056.12
2018-08-13T09:18:01.221Z,100055.62
2018-08-13T09:20:41.013Z,100055.83
2018-08-13T09:23:20.827Z,100054.61
2018-08-13T09:26:00.738Z,100045.25
2018-08-13T09:28:40.538Z,100044.61
2018-08-13T09:31:29.833Z,100041.22
2018-08-13T09:34:14.725Z,100040.23
2018-08-13T09:36:43.396Z,100037.61
2018-08-13T09:39:12.075Z,100035.98
2018-08-13T09:41:40.714Z,100038.78
2018-08-13T09:44:10.075Z,100037.36
2018-08-13T09:46:39.552Z,100037.89
2018-08-13T09:49:09.301Z,100035.96
2018-08-13T09:51:37.919Z,100035.12
2018-08-13T09:54:06.619Z,100025.80
2018-08-13T09:56:35.411Z,100023.03
2018-08-13T09:59:04.239Z,100017.34
2018-08-13T10:01:33.196Z,100024.97
2018-08-13T10:04:01.716Z,100019.61
2018-08-13T10:06:30.371Z,100016.64
2018-08-13T10:09:05.593Z,100012.38
2018-08-13T10:11:34.597Z,100011.30
2018-08-13T10:14:03.977Z,100027.02
2018-08-13T10:16:33.281Z,100024.49
2018-08-13T10:19:02.123Z,100012.38
2018-08-13T10:21:31.072Z,100010.61
2018-08-13T10:23:59.714Z,100000.48
2018-08-13T10:26:28.352Z,100000.41
2018-08-13T10:28:57.346Z,99996.17
2018-08-13T10:31:26.826Z,99993.14
2018-08-13T10:33:55.789Z,99999.58
2018-08-13T10:36:24.804Z,99997.38
2018-08-13T10:38:53.438Z,99995.61
2018-08-13T10:41:22.686Z,100011.59
2018-08-13T10:43:51.385Z,99986.88
2018-08-13T10:46:20.699Z,99995.73
2018-08-13T10:48:49.651Z,99981.78
2018-08-13T10:51:19.048Z,99987.00
2018-08-13T10:53:47.988Z,99980.49
2018-08-13T10:56:17.409Z,99977.09
2018-08-13T10:58:46.109Z,99967.22
2018-08-13T11:01:15.400Z,99967.48
2018-08-13T11:03:44.384Z,99960.30
2018-08-13T11:06:20.485Z,99963.48
2018-08-13T11:08:49.346Z,99963.77
2018-08-13T11:11:18.095Z,99956.83
2018-08-13T11:13:46.964Z,99956.31
2018-08-13T11:16:15.641Z,99947.55
2018-08-13T11:18:44.682Z,99951.93
2018-08-13T11:21:13.735Z,99941.98
2018-08-13T11:23:43.077Z,99932.43
2018-08-13T11:26:11.753Z,99950.98
2018-08-13T11:28:40.415Z,99951.72
2018-08-13T11:31:09.636Z,99948.08
2018-08-13T11:33:38.443Z,99955.58
2018-08-13T11:36:07.625Z,99954.13
2018-08-13T11:38:36.481Z,99948.68
2018-08-13T11:41:05.151Z,99954.13
2018-08-13T11:43:34.687Z,99952.16
2018-08-13T11:46:03.456Z,99944.40
2018-08-13T11:48:33.015Z,99955.56
2018-08-13T11:51:01.873Z,99954.22
2018-08-13T11:53:30.900Z,99956.46
2018-08-13T11:56:00.427Z,99960.55
2018-08-13T11:58:29.253Z,99958.44
2018-08-13T12:01:04.321Z,99947.63
2018-08-13T12:03:32.991Z,99948.97
2018-08-13T12:06:02.352Z,99951.81
2018-08-13T12:08:31.371Z,99944.36
2018-08-13T12:11:00.301Z,99950.60
2018-08-13T12:13:29.353Z,99953.27
2018-08-13T12:15:57.978Z,99952.69
2018-08-13T12:18:27.945Z,99952.44
2018-08-13T12:20:56.554Z,99952.90
2018-08-13T12:23:25.434Z,99951.45
2018-08-13T12:25:54.912Z,99962.87
2018-08-13T12:28:23.864Z,99960.33
2018-08-13T12:30:52.514Z,99957.28
2018-08-13T12:33:28.097Z,99973.54
2018-08-13T12:35:56.910Z,99965.77
2018-08-13T12:38:29.805Z,99974.62
2018-08-13T12:40:58.421Z,99971.34
2018-08-13T12:43:27.221Z,99958.28
2018-08-13T12:45:56.108Z,99950.98
2018-08-13T12:48:24.928Z,99951.76
2018-08-13T12:50:53.585Z,99952.17
2018-08-13T12:53:22.675Z,99951.84
2018-08-13T12:55:51.509Z,99961.98
2018-08-13T12:58:20.084Z,99960.76
2018-08-13T13:01:19.834Z,99960.06
2018-08-13T13:03:55.253Z,99953.91
2018-08-13T13:06:24.539Z,99951.14
2018-08-13T13:08:53.361Z,99954.90
2018-08-13T13:11:22.487Z,99957.19
2018-08-13T13:13:51.451Z,99944.98
2018-08-13T13:16:20.109Z,99959.05
2018-08-13T13:18:48.789Z,99955.78
2018-08-13T13:21:17.835Z,99954.96
2018-08-13T13:23:46.591Z,99976.17
2018-08-13T13:26:15.506Z,100001.44
2018-08-13T13:28:44.801Z,100010.33
2018-08-13T13:31:14.458Z,100009.02
2018-08-13T13:33:43.404Z,99994.63
2018-08-13T13:36:12.299Z,100015.05
2018-08-13T13:38:41.396Z,100044.23
2018-08-13T13:41:10.248Z,100051.72
2018-08-13T13:43:38.911Z,100047.22
2018-08-13T13:46:08.158Z,100011.64
2018-08-13T13:48:37.612Z,100021.66
2018-08-13T13:51:06.237Z,100033.62
2018-08-13T13:53:34.817Z,100019.21
2018-08-13T13:56:03.633Z,100024.96
2018-08-13T13:58:32.430Z,100020.80
2018-08-13T14:01:01.153Z,100007.66
2018-08-13T14:03:29.997Z,100014.87
2018-08-13T14:06:05.571Z,100015.64
2018-08-13T14:08:34.159Z,100019.30
2018-08-13T14:11:02.768Z,100019.95
2018-08-13T14:13:32.060Z,100015.04
2018-08-13T14:16:01.277Z,100017.45
2018-08-13T14:18:30.080Z,100012.02
2018-08-13T14:20:58.668Z,100006.47
2018-08-13T14:23:27.891Z,100011.62
2018-08-13T14:25:56.695Z,100010.13
2018-08-13T14:28:25.877Z,100008.04
2018-08-13T14:30:54.861Z,100012.27
2018-08-13T14:33:24.557Z,100016.14
2018-08-13T14:35:53.304Z,100023.45
2018-08-13T14:38:22.174Z,100023.98
2018-08-13T14:40:51.016Z,100024.38
2018-08-13T14:43:19.705Z,100035.44
2018-08-13T14:45:48.540Z,100041.52
2018-08-13T14:48:17.849Z,100048.25
2018-08-13T14:50:46.510Z,100047.55
2018-08-13T14:53:15.686Z,100046.44
2018-08-13T14:55:44.471Z,100045.58
2018-08-13T14:58:13.811Z,100042.27
2018-08-13T15:00:42.475Z,100034.00
2018-08-13T15:03:13.075Z,100036.86
2018-08-13T15:05:42.380Z,100033.83
2018-08-13T15:08:11.515Z,100029.73
2018-08-13T15:10:40.350Z,100035.11
2018-08-13T15:13:09.219Z,100043.11
2018-08-13T15:15:37.825Z,100041.67
2018-08-13T15:18:06.543Z,100036.38
2018-08-13T15:20:35.553Z,100035.23
2018-08-13T15:23:04.633Z,100029.02
2018-08-13T15:25:33.368Z,100032.27
2018-08-13T15:28:02.138Z,100035.36
2018-08-13T15:30:31.341Z,100033.42
2018-08-13T15:33:00.016Z,100032.42
2018-08-13T15:35:29.511Z,100033.76
2018-08-13T15:37:58.966Z,100034.58
2018-08-13T15:40:28.195Z,100030.13
2018-08-13T15:42:56.831Z,100021.02
2018-08-13T15:45:26.033Z,100025.83
2018-08-13T15:47:54.723Z,100030.81
2018-08-13T15:50:24.118Z,100038.44
2018-08-13T15:52:53.445Z,100038.14
2018-08-13T15:55:22.997Z,100039.06
2018-08-13T15:57:51.699Z,100036.59
2018-08-13T16:00:24.390Z,100041.33
2018-08-13T16:02:53.617Z,100049.28
2018-08-13T16:05:22.748Z,100042.22
2018-08-13T16:07:52.044Z,100037.21
2018-08-13T16:10:20.733Z,100053.93
2018-08-13T16:12:49.444Z,100049.75
2018-08-13T16:15:18.281Z,100050.00
2018-08-13T16:17:46.967Z,100052.65
2018-08-13T16:20:17.658Z,100046.26
2018-08-13T16:22:47.203Z,100046.14
2018-08-13T16:25:16.564Z,100050.09
2018-08-13T16:27:46.555Z,100047.53
2018-08-13T16:30:23.061Z,100044.33
2018-08-13T16:32:51.786Z,100045.50
2018-08-13T16:35:21.131Z,100047.28
2018-08-13T16:37:50.205Z,100045.01
2018-08-13T16:40:19.445Z,100044.00
2018-08-13T16:42:48.742Z,100035.62
2018-08-13T16:45:19.060Z,100033.03
2018-08-13T16:47:48.024Z,100039.67
2018-08-13T16:50:22.673Z,100036.80
2018-08-13T16:52:51.514Z,100045.77
2018-08-13T16:55:20.260Z,100037.52
2018-08-13T16:57:49.445Z,100042.04
2018-08-13T17:00:22.178Z,100034.39
2018-08-13T17:02:51.193Z,100040.70
2018-08-13T17:05:20.332Z,100047.47
2018-08-13T17:07:49.324Z,100058.85
2018-08-13T17:10:20.746Z,100057.37
2018-08-13T17:12:51.145Z,100053.72
2018-08-13T17:15:20.199Z,100049.47
2018-08-13T17:17:50.749Z,100048.61
2018-08-13T17:20:26.048Z,100048.59
2018-08-13T17:22:54.869Z,100045.07
2018-08-13T17:25:24.020Z,100038.28
2018-08-13T17:27:52.749Z,100034.84
2018-08-13T17:30:23.552Z,100030.56
2018-08-13T17:32:53.976Z,100039.66
2018-08-13T17:35:25.550Z,100037.19
2018-08-13T17:37:54.867Z,100043.31
2018-08-13T17:40:24.563Z,100034.20
2018-08-13T17:42:54.401Z,100044.28
2018-08-13T17:45:24.367Z,100046.81
2018-08-13T17:47:54.299Z,100050.73
2018-08-13T17:50:23.577Z,100061.31
2018-08-13T17:52:53.157Z,100064.77
2018-08-13T17:55:22.455Z,100067.94
2018-08-13T17:57:51.457Z,100076.98
2018-08-13T18:00:22.850Z,100086.16
2018-08-13T18:02:52.404Z,100081.80
2018-08-13T18:05:23.345Z,100086.48
2018-08-13T18:10:24.750Z,100086.30
2018-08-13T18:12:53.740Z,100096.52
2018-08-13T18:15:22.904Z,100099.59
2018-08-13T18:17:52.050Z,100100.13
2018-08-13T18:20:21.377Z,100098.90
2018-08-13T18:22:50.518Z,100094.66
2018-08-13T18:25:19.404Z,100096.95
2018-08-13T18:27:49.496Z,100099.16
2018-08-13T18:30:20.445Z,100095.88
2018-08-13T18:32:49.956Z,100096.66
2018-08-13T18:35:19.372Z,100099.91
2018-08-13T18:37:48.804Z,100095.39
2018-08-13T18:40:20.676Z,100102.03
2018-08-13T18:42:49.904Z,100097.02
2018-08-13T18:45:18.900Z,100100.95
2018-08-13T18:47:48.303Z,100111.80
2018-08-13T18:50:18.531Z,100121.05
2018-08-13T18:52:47.709Z,100115.44
2018-08-13T18:55:20.014Z,100121.19
2018-08-13T18:57:49.260Z,100127.09
2018-08-13T19:00:20.624Z,100132.22
2018-08-13T19:02:49.560Z,100134.71
2018-08-13T19:05:19.519Z,100134.72
2018-08-13T19:07:48.557Z,100145.66
2018-08-13T19:10:18.230Z,100148.80
2018-08-13T19:12:47.478Z,100146.16
2018-08-13T19:15:18.338Z,100156.70
2018-08-13T19:17:47.122Z,100154.72
2018-08-13T19:20:16.149Z,100145.30
2018-08-13T19:22:45.177Z,100145.50
2018-08-13T19:25:18.372Z,100145.70
2018-08-13T19:27:47.275Z,100142.30
2018-08-13T19:30:17.427Z,100146.78
2018-08-13T19:32:47.343Z,100154.66
2018-08-13T19:35:16.278Z,100151.80
2018-08-13T19:37:45.868Z,100158.64
2018-08-13T19:40:17.407Z,100160.55
2018-08-13T19:42:47.609Z,100160.75
2018-08-13T19:45:17.434Z,100158.64
2018-08-13T19:47:46.527Z,100172.03
2018-08-13T19:50:15.716Z,100174.39
2018-08-13T19:52:45.408Z,100174.97
2018-08-13T19:55:14.711Z,100173.47
2018-08-13T19:57:43.365Z,100174.50
2018-08-13T20:00:15.100Z,100180.84
2018-08-13T20:02:44.592Z,100186.72
2018-08-13T20:05:13.848Z,100185.97
2018-08-13T20:07:43.088Z,100192.69
2018-08-13T20:10:13.330Z,100193.34
2018-08-13T20:12:42.704Z,100195.90
2018-08-13T20:15:11.699Z,100198.29
2018-08-13T20:17:40.916Z,100201.52
2018-08-13T20:20:12.418Z,100204.62
2018-08-13T20:22:41.139Z,100203.00
2018-08-13T20:25:11.596Z,100204.06
2018-08-13T20:27:40.800Z,100202.72
2018-08-13T20:30:12.943Z,100209.02
2018-08-13T20:32:41.964Z,100210.08
2018-08-13T20:35:11.843Z,100207.02
2018-08-13T20:37:40.798Z,100208.53
2018-08-13T20:40:12.524Z,100210.89
2018-08-13T20:42:42.089Z,100202.73
2018-08-13T20:45:13.161Z,100200.73
2018-08-13T20:47:44.343Z,100199.02
2018-08-13T20:50:15.915Z,100207.25
2018-08-13T20:52:46.360Z,100205.81
2018-08-13T20:55:19.784Z,100202.78
2018-08-13T20:57:49.316Z,100197.20
2018-08-13T21:00:19.763Z,100205.24
2018-08-13T21:02:48.985Z,100209.48
2018-08-13T21:05:18.136Z,100213.84
2018-08-13T21:07:48.257Z,100216.04
2018-08-13T21:10:18.449Z,100221.50
2018-08-13T21:12:47.424Z,100228.31
2018-08-13T21:15:16.595Z,100226.16
2018-08-13T21:17:45.691Z,100220.92
2018-08-13T21:20:29.790Z,100228.02
2018-08-13T21:22:58.567Z,100227.63
2018-08-13T21:25:28.110Z,100229.78
2018-08-13T21:27:56.721Z,100228.95
2018-08-13T21:30:25.451Z,100226.67
2018-08-13T21:33:00.663Z,100229.89
2018-08-13T21:35:29.876Z,100222.88
2018-08-13T21:37:58.825Z,100225.98
2018-08-13T21:40:28.295Z,100227.50
2018-08-13T21:42:57.127Z,100229.28
2018-08-13T21:45:26.325Z,100228.52
2018-08-13T21:47:54.952Z,100238.92
2018-08-13T21:50:23.985Z,100237.37
2018-08-13T21:52:53.063Z,100253.77
2018-08-13T21:55:22.476Z,100244.28
2018-08-13T21:57:51.075Z,100250.04
2018-08-13T22:00:27.173Z,100253.14
2018-08-13T22:02:56.766Z,100254.76
2018-08-13T22:05:25.702Z,100255.39
2018-08-13T22:07:54.239Z,100261.15
2018-08-13T22:10:23.669Z,100265.05
2018-08-13T22:12:52.407Z,100259.64
2018-08-13T22:15:27.584Z,100262.60
2018-08-13T22:17:58.040Z,100264.31
2018-08-13T22:20:26.973Z,100272.88
2018-08-13T22:22:56.825Z,100271.37
2018-08-13T22:25:32.092Z,100278.08
2018-08-13T22:28:01.087Z,100273.44
2018-08-13T22:30:31.505Z,100283.17
2018-08-13T22:33:00.338Z,100281.08
2018-08-13T22:35:28.902Z,100288.93
2018-08-13T22:37:57.639Z,100288.41
2018-08-13T22:40:26.470Z,100288.86
2018-08-13T22:42:55.111Z,100288.48
2018-08-13T22:45:24.552Z,100285.63
2018-08-13T22:47:53.474Z,100288.73
2018-08-13T22:50:22.033Z,100300.34
2018-08-13T22:52:50.969Z,100301.28
2018-08-13T22:55:19.715Z,100293.83
2018-08-13T22:57:49.093Z,100299.89
2018-08-13T23:00:18.891Z,100301.52
2018-08-13T23:02:48.412Z,100301.14
2018-08-13T23:05:22.265Z,100303.94
2018-08-13T23:07:51.047Z,100311.13
2018-08-13T23:10:21.068Z,100312.97
2018-08-13T23:12:51.330Z,100315.31
2018-08-13T23:15:20.344Z,100318.52
2018-08-13T23:17:49.197Z,100314.62
2018-08-13T23:20:19.946Z,100318.70
2018-08-13T23:22:51.567Z,100322.05
2018-08-13T23:25:20.667Z,100328.22
2018-08-13T23:27:50.619Z,100321.66
2018-08-13T23:30:19.470Z,100329.33
2018-08-13T23:32:49.470Z,100333.38
2018-08-13T23:35:19.092Z,100326.82
2018-08-13T23:37:47.758Z,100333.38
2018-08-13T23:40:17.083Z,100340.45
2018-08-13T23:42:45.865Z,100343.20
2018-08-13T23:45:16.131Z,100343.03
2018-08-13T23:47:44.891Z,100347.77
2018-08-13T23:50:18.276Z,100346.00
2018-08-13T23:52:47.670Z,100345.61
2018-08-13T23:55:19.145Z,100346.00
2018-08-13T23:57:48.036Z,100355.27
